Time;durP1;ratioP1;P1;durP2;ratioP2;P2;SDS_P1;SDS_P2;PMS_P1;PMS_P2;Temp;Humidity;BMP_temperature;BMP_pressure;BME280_temperature;BME280_humidity;BME280_pressure;Samples;Min_cycle;Max_cycle;Signal;HPM_P1;HPM_P2
2023/06/09 00:01:53;;;;;;;10.10;7.18;;;;;;;;;;5051579;28;20040;-73
2023/06/09 00:04:23;;;;;;;9.88;6.03;;;;;;;;;;5062434;28;20036;-73
2023/06/09 00:06:51;;;;;;;13.05;7.15;;;;;;;;;;5063886;28;20012;-73
2023/06/09 00:09:18;;;;;;;12.23;6.55;;;;;;;;;;5053980;28;20108;-73
2023/06/09 00:11:45;;;;;;;11.52;6.93;;;;;;;;;;5053946;28;20072;-73
2023/06/09 00:14:11;;;;;;;10.65;6.57;;;;;;;;;;5058702;28;20171;-74
2023/06/09 00:16:37;;;;;;;11.75;6.63;;;;;;;;;;5056503;28;20037;-73
2023/06/09 00:19:04;;;;;;;10.52;6.70;;;;;;;;;;5056158;28;20059;-73
2023/06/09 00:21:30;;;;;;;12.88;7.13;;;;;;;;;;5053953;28;20203;-73
2023/06/09 00:23:56;;;;;;;13.35;6.85;;;;;;;;;;5061223;28;20505;-73
2023/06/09 00:26:22;;;;;;;12.70;6.70;;;;;;;;;;5050256;28;20075;-73
2023/06/09 00:28:49;;;;;;;10.13;7.35;;;;;;;;;;5049651;28;20577;-74
2023/06/09 00:31:15;;;;;;;9.50;6.30;;;;;;;;;;5050061;28;20048;-73
2023/06/09 00:33:41;;;;;;;11.50;6.57;;;;;;;;;;5061582;28;20432;-73
2023/06/09 00:36:07;;;;;;;13.90;7.00;;;;;;;;;;5057947;28;20043;-73
2023/06/09 00:38:34;;;;;;;12.20;8.60;;;;;;;;;;5052868;28;20648;-73
2023/06/09 00:41:00;;;;;;;12.20;7.03;;;;;;;;;;5054688;28;20127;-73
2023/06/09 00:43:26;;;;;;;11.35;6.55;;;;;;;;;;5067153;28;20028;-74
2023/06/09 00:45:53;;;;;;;13.65;7.25;;;;;;;;;;5059273;28;20028;-74
2023/06/09 00:48:19;;;;;;;15.77;7.07;;;;;;;;;;5055939;28;20033;-73
2023/06/09 00:50:45;;;;;;;12.98;7.25;;;;;;;;;;5057297;28;20031;-73
2023/06/09 00:53:12;;;;;;;14.85;6.85;;;;;;;;;;5065639;28;20505;-73
2023/06/09 00:55:40;;;;;;;12.65;7.20;;;;;;;;;;5056281;28;20025;-73
2023/06/09 00:58:07;;;;;;;12.48;7.13;;;;;;;;;;5051125;28;20480;-73
2023/06/09 01:00:35;;;;;;;14.50;7.18;;;;;;;;;;5051541;28;20043;-73
2023/06/09 01:03:02;;;;;;;15.27;8.32;;;;;;;;;;5049633;28;20032;-73
2023/06/09 01:05:38;;;;;;;14.82;8.57;;;;;;;;;;5063714;28;20502;-73
2023/06/09 01:08:07;;;;;;;16.30;7.35;;;;;;;;;;5063636;28;20031;-73
2023/06/09 01:10:43;;;;;;;16.75;7.25;;;;;;;;;;5051537;28;20103;-73
2023/06/09 01:13:32;;;;;;;10.98;7.63;;;;;;;;;;5057114;28;20028;-74
2023/06/09 01:16:02;;;;;;;14.25;8.18;;;;;;;;;;5054191;28;20029;-74
2023/06/09 01:18:35;;;;;;;11.40;7.28;;;;;;;;;;5071885;28;20556;-75
2023/06/09 01:21:14;;;;;;;12.93;8.55;;;;;;;;;;5071955;28;20021;-75
2023/06/09 01:23:51;;;;;;;13.80;8.38;;;;;;;;;;5064446;28;20074;-75
2023/06/09 01:26:18;;;;;;;14.52;8.43;;;;;;;;;;5061992;28;20471;-73
2023/06/09 01:28:46;;;;;;;25.13;8.98;;;;;;;;;;5056429;28;20024;-73
2023/06/09 01:31:14;;;;;;;10.98;7.38;;;;;;;;;;5057590;28;20041;-73
2023/06/09 01:33:41;;;;;;;15.95;8.68;;;;;;;;;;5055578;28;20154;-74
2023/06/09 01:36:07;;;;;;;13.77;8.07;;;;;;;;;;5063808;28;20501;-73
2023/06/09 01:38:33;;;;;;;15.70;8.27;;;;;;;;;;5057537;28;20479;-73
2023/06/09 01:40:59;;;;;;;14.40;8.90;;;;;;;;;;5064011;28;20033;-73
2023/06/09 01:43:25;;;;;;;17.00;8.85;;;;;;;;;;5055659;28;20391;-73
2023/06/09 01:45:52;;;;;;;15.32;9.90;;;;;;;;;;5057607;28;20025;-74
2023/06/09 01:48:23;;;;;;;17.13;9.30;;;;;;;;;;5051742;28;20028;-74
2023/06/09 01:50:58;;;;;;;12.90;8.80;;;;;;;;;;5060496;28;20059;-73
2023/06/09 01:53:31;;;;;;;16.05;8.68;;;;;;;;;;5071910;28;20551;-73
2023/06/09 01:56:15;;;;;;;19.35;8.95;;;;;;;;;;5051461;28;20039;-74
2023/06/09 01:58:47;;;;;;;19.55;9.20;;;;;;;;;;5063848;28;20029;-73
2023/06/09 02:01:15;;;;;;;14.13;8.95;;;;;;;;;;5055925;28;20505;-73
2023/06/09 02:03:42;;;;;;;13.63;9.38;;;;;;;;;;5051055;28;20039;-74
2023/06/09 02:06:09;;;;;;;17.02;9.77;;;;;;;;;;5060146;28;20039;-73
2023/06/09 02:08:37;;;;;;;16.38;10.18;;;;;;;;;;5058239;28;20036;-73
2023/06/09 02:11:03;;;;;;;20.15;9.55;;;;;;;;;;5053356;28;20030;-72
2023/06/09 02:13:29;;;;;;;15.52;9.25;;;;;;;;;;5057548;28;20470;-73
2023/06/09 02:15:55;;;;;;;19.73;10.52;;;;;;;;;;5067388;28;20382;-74
2023/06/09 02:18:22;;;;;;;16.42;10.38;;;;;;;;;;5062161;28;20021;-73
2023/06/09 02:20:49;;;;;;;18.50;10.52;;;;;;;;;;5056337;28;20097;-73
2023/06/09 02:23:23;;;;;;;13.88;9.20;;;;;;;;;;5060622;28;20074;-72
2023/06/09 02:25:50;;;;;;;16.17;10.75;;;;;;;;;;5072952;28;20425;-73
2023/06/09 02:28:16;;;;;;;20.60;11.02;;;;;;;;;;5050521;28;20053;-73
2023/06/09 02:30:43;;;;;;;15.93;10.05;;;;;;;;;;5052736;28;20037;-74
2023/06/09 02:33:10;;;;;;;26.77;10.68;;;;;;;;;;5056573;28;20039;-73
2023/06/09 02:35:36;;;;;;;17.92;9.93;;;;;;;;;;5052884;28;20052;-74
2023/06/09 02:38:06;;;;;;;18.15;10.05;;;;;;;;;;5058371;28;20549;-73
2023/06/09 02:40:32;;;;;;;20.98;10.43;;;;;;;;;;5056316;28;20037;-73
2023/06/09 02:42:59;;;;;;;16.95;9.02;;;;;;;;;;5067756;28;20078;-74
2023/06/09 02:45:25;;;;;;;15.85;8.90;;;;;;;;;;5057005;28;20021;-73
2023/06/09 02:47:51;;;;;;;14.10;8.75;;;;;;;;;;5060418;28;20099;-73
2023/06/09 02:50:18;;;;;;;14.18;8.75;;;;;;;;;;5059534;28;20028;-74
2023/06/09 02:52:44;;;;;;;15.90;8.63;;;;;;;;;;5059888;28;20504;-73
2023/06/09 02:55:11;;;;;;;13.55;9.18;;;;;;;;;;5055109;28;20029;-73
2023/06/09 02:57:37;;;;;;;13.82;8.40;;;;;;;;;;5062654;28;20549;-74
2023/06/09 03:00:04;;;;;;;13.25;8.48;;;;;;;;;;5069876;28;20031;-74
2023/06/09 03:02:32;;;;;;;13.13;8.10;;;;;;;;;;5077146;28;20031;-73
2023/06/09 03:04:58;;;;;;;12.27;8.45;;;;;;;;;;5070241;28;20218;-73
2023/06/09 03:07:25;;;;;;;14.52;8.02;;;;;;;;;;5074396;28;20038;-74
2023/06/09 03:09:51;;;;;;;16.23;8.68;;;;;;;;;;5066671;28;20043;-74
2023/06/09 03:12:17;;;;;;;13.05;7.13;;;;;;;;;;5072471;28;20036;-75
2023/06/09 03:14:43;;;;;;;12.95;7.38;;;;;;;;;;5056614;28;20028;-74
2023/06/09 03:17:09;;;;;;;11.00;6.95;;;;;;;;;;5056581;28;20037;-73
2023/06/09 03:19:35;;;;;;;14.65;7.85;;;;;;;;;;5057582;28;20378;-74
2023/06/09 03:22:03;;;;;;;13.23;7.47;;;;;;;;;;5070106;28;20029;-74
2023/06/09 03:24:30;;;;;;;12.77;6.82;;;;;;;;;;5070356;28;20173;-73
2023/06/09 03:26:56;;;;;;;13.73;8.13;;;;;;;;;;5055165;28;20025;-73
2023/06/09 03:29:22;;;;;;;12.02;6.82;;;;;;;;;;5069463;28;20094;-73
2023/06/09 03:31:49;;;;;;;13.10;8.55;;;;;;;;;;5061357;28;20086;-73
2023/06/09 03:34:15;;;;;;;13.35;8.63;;;;;;;;;;5061540;28;20024;-74
2023/06/09 03:36:41;;;;;;;14.55;7.57;;;;;;;;;;5063694;28;20061;-74
2023/06/09 03:39:08;;;;;;;9.93;7.07;;;;;;;;;;5053428;28;20081;-74
2023/06/09 03:41:34;;;;;;;15.88;7.20;;;;;;;;;;5053924;28;20364;-74
2023/06/09 03:44:00;;;;;;;17.80;7.55;;;;;;;;;;5054228;28;20449;-72
2023/06/09 03:46:26;;;;;;;22.05;8.65;;;;;;;;;;5064120;28;20024;-73
2023/06/09 03:48:53;;;;;;;19.00;6.88;;;;;;;;;;5064708;28;20033;-74
2023/06/09 03:51:20;;;;;;;13.45;6.55;;;;;;;;;;5058081;28;20398;-73
2023/06/09 03:53:46;;;;;;;11.13;6.55;;;;;;;;;;5059847;28;20059;-73
2023/06/09 03:56:12;;;;;;;10.15;6.00;;;;;;;;;;5065698;28;20036;-74
2023/06/09 03:58:38;;;;;;;15.38;7.93;;;;;;;;;;5060615;28;20041;-73
2023/06/09 04:01:04;;;;;;;10.82;8.13;;;;;;;;;;5057187;28;20107;-73
2023/06/09 04:03:30;;;;;;;15.82;6.43;;;;;;;;;;5063533;28;20400;-73
2023/06/09 04:05:57;;;;;;;16.33;7.28;;;;;;;;;;5057391;28;20108;-73
2023/06/09 04:08:23;;;;;;;15.05;7.95;;;;;;;;;;5066103;28;20029;-73
2023/06/09 04:10:50;;;;;;;15.73;6.55;;;;;;;;;;5058162;28;20066;-74
2023/06/09 04:13:16;;;;;;;13.68;5.85;;;;;;;;;;5068873;28;20033;-74
2023/06/09 04:15:42;;;;;;;10.45;6.35;;;;;;;;;;5052527;28;20423;-73
2023/06/09 04:18:08;;;;;;;9.63;6.18;;;;;;;;;;5059513;28;20029;-74
2023/06/09 04:20:35;;;;;;;18.50;6.15;;;;;;;;;;5062175;28;20032;-73
2023/06/09 04:23:01;;;;;;;23.52;7.50;;;;;;;;;;5054329;28;20404;-73
2023/06/09 04:25:27;;;;;;;15.50;6.55;;;;;;;;;;5067650;28;20021;-73
2023/06/09 04:27:54;;;;;;;11.70;6.03;;;;;;;;;;5063730;28;20017;-73
2023/06/09 04:30:25;;;;;;;12.00;7.45;;;;;;;;;;5049262;28;20051;-73
2023/06/09 04:32:54;;;;;;;15.43;6.65;;;;;;;;;;5069612;28;20039;-73
2023/06/09 04:35:21;;;;;;;11.07;5.95;;;;;;;;;;5058637;28;20029;-74
2023/06/09 04:37:48;;;;;;;14.73;5.88;;;;;;;;;;5050049;28;20028;-74
2023/06/09 04:40:21;;;;;;;16.00;6.57;;;;;;;;;;5054194;28;20074;-74
2023/06/09 04:42:51;;;;;;;9.55;5.93;;;;;;;;;;5054472;28;20036;-73
2023/06/09 04:45:20;;;;;;;11.00;6.00;;;;;;;;;;5050424;28;20483;-74
2023/06/09 04:47:48;;;;;;;12.18;6.03;;;;;;;;;;5056661;28;20033;-75
2023/06/09 04:50:15;;;;;;;17.98;6.43;;;;;;;;;;5055738;28;20591;-73
2023/06/09 04:52:42;;;;;;;12.23;6.10;;;;;;;;;;5060197;28;20036;-74
2023/06/09 04:55:09;;;;;;;14.48;6.75;;;;;;;;;;5055219;28;20039;-75
2023/06/09 04:57:36;;;;;;;12.73;6.32;;;;;;;;;;5066877;28;20020;-76
2023/06/09 05:00:03;;;;;;;8.30;5.82;;;;;;;;;;5056847;28;20031;-75
2023/06/09 05:02:30;;;;;;;14.00;6.05;;;;;;;;;;5061720;28;20032;-75
2023/06/09 05:04:56;;;;;;;11.70;5.72;;;;;;;;;;5062498;28;20673;-74
2023/06/09 05:07:22;;;;;;;16.40;8.07;;;;;;;;;;5062071;28;20085;-74
2023/06/09 05:09:48;;;;;;;17.20;7.13;;;;;;;;;;5056527;28;20078;-73
2023/06/09 05:12:14;;;;;;;12.00;5.82;;;;;;;;;;5062386;28;20403;-74
2023/06/09 05:14:45;;;;;;;12.15;5.63;;;;;;;;;;5053514;28;20407;-74
2023/06/09 05:17:11;;;;;;;13.05;5.65;;;;;;;;;;5059733;28;20047;-75
2023/06/09 05:19:37;;;;;;;13.95;5.60;;;;;;;;;;5060184;28;20464;-74
2023/06/09 05:22:04;;;;;;;13.70;6.43;;;;;;;;;;5059578;28;20483;-74
2023/06/09 05:24:30;;;;;;;21.95;7.95;;;;;;;;;;5053452;28;20031;-74
2023/06/09 05:26:56;;;;;;;11.73;6.93;;;;;;;;;;5054256;28;20059;-74
2023/06/09 05:29:22;;;;;;;17.60;5.85;;;;;;;;;;5055991;28;20294;-74
2023/06/09 05:31:48;;;;;;;10.15;6.20;;;;;;;;;;5054765;28;20692;-74
2023/06/09 05:34:15;;;;;;;19.77;7.03;;;;;;;;;;5050629;28;20150;-74
2023/06/09 05:36:41;;;;;;;13.52;6.88;;;;;;;;;;5054379;28;20056;-74
2023/06/09 05:39:08;;;;;;;12.82;5.90;;;;;;;;;;5053200;28;20043;-74
2023/06/09 05:41:35;;;;;;;13.88;6.18;;;;;;;;;;5062758;28;20051;-74
2023/06/09 05:44:01;;;;;;;11.10;6.05;;;;;;;;;;5048623;28;20458;-74
2023/06/09 05:46:27;;;;;;;15.50;6.22;;;;;;;;;;5054431;28;20502;-74
2023/06/09 05:48:53;;;;;;;15.52;5.88;;;;;;;;;;5062417;28;20031;-73
2023/06/09 05:51:19;;;;;;;13.55;5.78;;;;;;;;;;5064010;28;20553;-74
2023/06/09 05:53:46;;;;;;;12.40;5.95;;;;;;;;;;5054446;28;20036;-75
2023/06/09 05:56:15;;;;;;;12.73;5.60;;;;;;;;;;5065264;28;20039;-76
2023/06/09 05:58:44;;;;;;;13.50;7.22;;;;;;;;;;5058566;28;20401;-74
2023/06/09 06:01:11;;;;;;;14.88;6.35;;;;;;;;;;5062283;28;20506;-74
2023/06/09 06:03:38;;;;;;;12.93;5.80;;;;;;;;;;5056403;28;20064;-73
2023/06/09 06:06:04;;;;;;;14.70;5.55;;;;;;;;;;5065838;28;20119;-73
2023/06/09 06:08:31;;;;;;;12.82;8.00;;;;;;;;;;5058633;28;20025;-72
2023/06/09 06:10:57;;;;;;;9.15;6.55;;;;;;;;;;5056755;28;20116;-74
2023/06/09 06:13:23;;;;;;;12.65;6.10;;;;;;;;;;5062976;28;20036;-73
2023/06/09 06:15:49;;;;;;;12.18;5.22;;;;;;;;;;5066451;28;20139;-74
2023/06/09 06:18:15;;;;;;;10.73;4.88;;;;;;;;;;5064478;28;20024;-74
2023/06/09 06:20:41;;;;;;;10.20;5.90;;;;;;;;;;5078689;28;20029;-74
2023/06/09 06:23:08;;;;;;;10.98;7.35;;;;;;;;;;5067149;28;20039;-73
2023/06/09 06:25:36;;;;;;;15.77;6.13;;;;;;;;;;5063080;28;20043;-73
2023/06/09 06:28:02;;;;;;;14.45;7.03;;;;;;;;;;5076484;28;20059;-72
2023/06/09 06:30:29;;;;;;;9.27;5.35;;;;;;;;;;5059887;28;20055;-73
2023/06/09 06:32:56;;;;;;;12.68;6.15;;;;;;;;;;5061430;28;20025;-74
2023/06/09 06:35:23;;;;;;;9.57;5.57;;;;;;;;;;5059190;28;20021;-73
2023/06/09 06:37:49;;;;;;;14.23;6.55;;;;;;;;;;5056117;28;20052;-74
2023/06/09 06:40:15;;;;;;;14.30;6.95;;;;;;;;;;5061593;28;20158;-73
2023/06/09 06:42:41;;;;;;;11.85;5.72;;;;;;;;;;5057078;28;20029;-73
2023/06/09 06:45:07;;;;;;;10.18;6.55;;;;;;;;;;5056700;28;20032;-74
2023/06/09 06:47:33;;;;;;;10.38;4.95;;;;;;;;;;5061699;28;20047;-73
2023/06/09 06:50:00;;;;;;;20.13;6.45;;;;;;;;;;5057179;28;20025;-73
2023/06/09 06:52:26;;;;;;;13.82;5.93;;;;;;;;;;5073105;28;20378;-74
2023/06/09 06:54:52;;;;;;;12.15;6.88;;;;;;;;;;5053919;28;20452;-74
2023/06/09 06:57:18;;;;;;;13.23;5.80;;;;;;;;;;5058118;28;20024;-74
2023/06/09 06:59:44;;;;;;;12.10;5.93;;;;;;;;;;5062028;28;20036;-75
2023/06/09 07:02:11;;;;;;;15.60;6.45;;;;;;;;;;5055283;28;20033;-72
2023/06/09 07:04:37;;;;;;;13.82;5.50;;;;;;;;;;5054944;28;20058;-74
2023/06/09 07:07:03;;;;;;;8.55;5.20;;;;;;;;;;5059819;28;20036;-74
2023/06/09 07:09:29;;;;;;;14.82;5.55;;;;;;;;;;5055648;28;20060;-75
2023/06/09 07:11:55;;;;;;;13.40;5.65;;;;;;;;;;5062766;28;20031;-73
2023/06/09 07:14:21;;;;;;;10.95;5.35;;;;;;;;;;5058442;28;20036;-74
2023/06/09 07:16:47;;;;;;;10.90;5.43;;;;;;;;;;5062772;28;20028;-74
2023/06/09 07:19:13;;;;;;;16.05;6.07;;;;;;;;;;5053544;28;20559;-75
2023/06/09 07:21:39;;;;;;;15.88;6.75;;;;;;;;;;5062853;28;20029;-73
2023/06/09 07:24:05;;;;;;;9.75;5.30;;;;;;;;;;5064966;28;20055;-74
2023/06/09 07:26:32;;;;;;;14.23;6.20;;;;;;;;;;5074474;28;20501;-75
2023/06/09 07:28:58;;;;;;;13.18;5.20;;;;;;;;;;5055901;28;20060;-75
2023/06/09 07:31:25;;;;;;;8.73;5.15;;;;;;;;;;5052385;28;20056;-75
2023/06/09 07:33:51;;;;;;;15.55;5.85;;;;;;;;;;5054692;28;20075;-74
2023/06/09 07:36:17;;;;;;;14.15;6.70;;;;;;;;;;5058838;28;20032;-74
2023/06/09 07:38:44;;;;;;;12.88;5.85;;;;;;;;;;5066028;28;20129;-75
2023/06/09 07:41:10;;;;;;;11.60;5.68;;;;;;;;;;5054325;28;20039;-74
2023/06/09 07:43:36;;;;;;;10.10;4.70;;;;;;;;;;5062928;28;20036;-75
2023/06/09 07:46:02;;;;;;;9.90;4.93;;;;;;;;;;5064341;28;20023;-73
2023/06/09 07:48:28;;;;;;;12.07;5.30;;;;;;;;;;5059294;28;20028;-73
2023/06/09 07:50:54;;;;;;;12.82;5.47;;;;;;;;;;5054455;28;20181;-74
2023/06/09 07:53:21;;;;;;;12.32;5.45;;;;;;;;;;5061481;28;20566;-74
2023/06/09 07:55:47;;;;;;;11.40;5.80;;;;;;;;;;5059605;28;20032;-73
2023/06/09 07:58:13;;;;;;;10.93;5.53;;;;;;;;;;5052548;28;20094;-74
2023/06/09 08:00:40;;;;;;;9.80;5.18;;;;;;;;;;5069352;28;20112;-74
2023/06/09 08:03:06;;;;;;;12.77;5.68;;;;;;;;;;5069158;28;20028;-74
2023/06/09 08:05:32;;;;;;;11.38;5.25;;;;;;;;;;5056107;28;20236;-74
2023/06/09 08:08:00;;;;;;;11.00;5.15;;;;;;;;;;5058535;28;20071;-74
2023/06/09 08:10:27;;;;;;;12.18;6.40;;;;;;;;;;5069405;28;20048;-74
2023/06/09 08:12:53;;;;;;;10.30;5.93;;;;;;;;;;5056371;28;20055;-74
2023/06/09 08:15:20;;;;;;;9.52;4.82;;;;;;;;;;5059963;28;20032;-74
2023/06/09 08:17:46;;;;;;;11.23;5.20;;;;;;;;;;5054509;28;20475;-73
2023/06/09 08:20:12;;;;;;;14.40;5.90;;;;;;;;;;5059523;28;20749;-75
2023/06/09 08:22:39;;;;;;;12.20;5.82;;;;;;;;;;5055807;28;20475;-74
2023/06/09 08:25:05;;;;;;;15.05;5.25;;;;;;;;;;5059486;28;20049;-75
2023/06/09 08:27:31;;;;;;;11.35;5.00;;;;;;;;;;5059791;28;20021;-75
2023/06/09 08:29:57;;;;;;;12.18;4.95;;;;;;;;;;5070105;28;20045;-73
2023/06/09 08:32:23;;;;;;;17.48;6.28;;;;;;;;;;5060738;28;20036;-75
2023/06/09 08:34:50;;;;;;;12.77;5.18;;;;;;;;;;5057022;28;20052;-74
2023/06/09 08:37:16;;;;;;;11.80;5.47;;;;;;;;;;5064586;28;20043;-74
2023/06/09 08:39:42;;;;;;;14.95;5.50;;;;;;;;;;5057428;28;20073;-74
2023/06/09 08:42:14;;;;;;;10.63;5.40;;;;;;;;;;5066831;28;20506;-74
2023/06/09 08:44:43;;;;;;;13.43;6.18;;;;;;;;;;5054134;28;20382;-74
2023/06/09 08:47:12;;;;;;;10.65;5.18;;;;;;;;;;5065282;28;20509;-74
2023/06/09 08:49:38;;;;;;;12.82;5.07;;;;;;;;;;5066260;28;20116;-74
2023/06/09 08:52:05;;;;;;;10.65;5.28;;;;;;;;;;5062138;28;20078;-74
2023/06/09 08:54:31;;;;;;;15.77;5.28;;;;;;;;;;5067545;28;20063;-74
2023/06/09 08:56:58;;;;;;;10.52;5.43;;;;;;;;;;5064863;28;20425;-74
2023/06/09 08:59:24;;;;;;;13.93;5.75;;;;;;;;;;5056266;28;20116;-74
2023/06/09 09:01:50;;;;;;;9.93;5.25;;;;;;;;;;5052320;28;20029;-75
2023/06/09 09:04:20;;;;;;;11.27;5.13;;;;;;;;;;5053814;28;20025;-74
2023/06/09 09:06:46;;;;;;;11.75;5.43;;;;;;;;;;5064702;28;20226;-75
2023/06/09 09:09:12;;;;;;;9.48;6.75;;;;;;;;;;5056568;28;20025;-74
2023/06/09 09:11:39;;;;;;;12.63;6.65;;;;;;;;;;5056302;28;20457;-74
2023/06/09 09:14:13;;;;;;;14.90;5.80;;;;;;;;;;5069070;28;20498;-74
2023/06/09 09:16:39;;;;;;;10.23;4.95;;;;;;;;;;5069416;28;20488;-74
2023/06/09 09:19:06;;;;;;;13.50;4.88;;;;;;;;;;5058657;28;20112;-76
2023/06/09 09:21:37;;;;;;;9.82;5.25;;;;;;;;;;5055166;28;20021;-75
2023/06/09 09:24:07;;;;;;;12.40;5.20;;;;;;;;;;5071953;28;20387;-74
2023/06/09 09:26:33;;;;;;;12.57;6.25;;;;;;;;;;5061028;28;20068;-75
2023/06/09 09:29:01;;;;;;;13.13;5.88;;;;;;;;;;5078673;28;20033;-74
2023/06/09 09:31:36;;;;;;;10.15;5.22;;;;;;;;;;5076899;28;20057;-75
2023/06/09 09:34:02;;;;;;;7.35;4.70;;;;;;;;;;5063180;28;20036;-74
2023/06/09 09:36:28;;;;;;;15.55;5.68;;;;;;;;;;5069264;28;20036;-75
2023/06/09 09:38:58;;;;;;;13.15;5.45;;;;;;;;;;5068554;28;20482;-74
2023/06/09 09:41:25;;;;;;;9.60;5.63;;;;;;;;;;5058560;28;20033;-74
2023/06/09 09:43:56;;;;;;;11.73;5.07;;;;;;;;;;5061607;28;20071;-74
2023/06/09 09:46:23;;;;;;;11.63;5.75;;;;;;;;;;5074724;28;20017;-74
2023/06/09 09:48:49;;;;;;;15.40;6.28;;;;;;;;;;5066677;28;20055;-75
2023/06/09 09:51:16;;;;;;;11.20;4.93;;;;;;;;;;5067133;28;20058;-75
2023/06/09 09:53:45;;;;;;;10.35;5.75;;;;;;;;;;5067740;28;20196;-74
2023/06/09 09:56:13;;;;;;;15.23;6.60;;;;;;;;;;5054194;28;20044;-74
2023/06/09 09:58:42;;;;;;;11.20;5.20;;;;;;;;;;5065717;28;20021;-74
2023/06/09 10:01:10;;;;;;;13.95;5.50;;;;;;;;;;5056640;28;20037;-75
2023/06/09 10:03:38;;;;;;;10.88;5.55;;;;;;;;;;5062886;28;20052;-73
2023/06/09 10:06:08;;;;;;;11.52;6.10;;;;;;;;;;5068130;28;20032;-74
2023/06/09 10:08:35;;;;;;;10.23;5.68;;;;;;;;;;5070688;28;20020;-75
2023/06/09 10:11:02;;;;;;;14.75;6.00;;;;;;;;;;5052490;28;20025;-76
2023/06/09 10:13:29;;;;;;;12.80;5.78;;;;;;;;;;5059651;28;20074;-75
2023/06/09 10:15:55;;;;;;;7.30;4.45;;;;;;;;;;5066171;28;20032;-75
2023/06/09 10:18:22;;;;;;;8.20;6.03;;;;;;;;;;5064977;28;20499;-75
2023/06/09 10:20:48;;;;;;;12.07;5.53;;;;;;;;;;5057688;28;20038;-76
2023/06/09 10:23:15;;;;;;;10.35;5.07;;;;;;;;;;5064308;28;20044;-74
2023/06/09 10:25:42;;;;;;;10.50;5.30;;;;;;;;;;5061402;28;20402;-75
2023/06/09 10:28:08;;;;;;;9.43;5.45;;;;;;;;;;5066975;28;20033;-76
2023/06/09 10:30:34;;;;;;;13.85;5.78;;;;;;;;;;5057789;28;20067;-75
2023/06/09 10:33:05;;;;;;;9.77;6.30;;;;;;;;;;5056101;28;20025;-74
2023/06/09 10:35:32;;;;;;;10.50;5.90;;;;;;;;;;5067092;28;20450;-75
2023/06/09 10:37:59;;;;;;;11.27;5.80;;;;;;;;;;5064362;28;20104;-74
2023/06/09 10:40:25;;;;;;;11.15;5.95;;;;;;;;;;5053366;28;20521;-75
2023/06/09 10:42:51;;;;;;;14.27;6.13;;;;;;;;;;5060442;28;20032;-75
2023/06/09 10:45:22;;;;;;;9.85;5.28;;;;;;;;;;5058355;28;20029;-75
2023/06/09 10:47:49;;;;;;;12.57;6.28;;;;;;;;;;5057025;28;20055;-75
2023/06/09 10:50:30;;;;;;;14.68;6.47;;;;;;;;;;5064920;28;20024;-75
2023/06/09 10:53:00;;;;;;;10.63;6.47;;;;;;;;;;5060257;28;20127;-75
2023/06/09 10:55:30;;;;;;;10.65;5.40;;;;;;;;;;5065410;28;20118;-76
2023/06/09 10:57:57;;;;;;;10.10;6.20;;;;;;;;;;5065412;28;20043;-75
2023/06/09 11:00:23;;;;;;;12.25;5.93;;;;;;;;;;5056974;28;20024;-75
2023/06/09 11:03:10;;;;;;;17.65;6.70;;;;;;;;;;5064861;28;20028;-75
2023/06/09 11:05:43;;;;;;;11.95;6.90;;;;;;;;;;5056927;28;20108;-76
2023/06/09 11:08:09;;;;;;;12.05;6.82;;;;;;;;;;5059374;28;20049;-75
2023/06/09 11:10:38;;;;;;;18.58;6.93;;;;;;;;;;5056073;28;20368;-75
2023/06/09 11:13:34;;;;;;;12.10;6.55;;;;;;;;;;5064071;28;20135;-75
2023/06/09 11:16:01;;;;;;;15.15;7.22;;;;;;;;;;5050404;28;20041;-75
2023/06/09 11:18:27;;;;;;;18.13;7.20;;;;;;;;;;5064479;28;20052;-75
2023/06/09 11:21:08;;;;;;;11.25;7.25;;;;;;;;;;5061956;28;20038;-75
2023/06/09 11:23:53;;;;;;;9.85;7.03;;;;;;;;;;5063235;28;20059;-76
2023/06/09 11:26:26;;;;;;;13.07;6.53;;;;;;;;;;5065436;28;20041;-75
2023/06/09 11:28:52;;;;;;;13.77;7.20;;;;;;;;;;5056546;28;20032;-76
2023/06/09 11:31:21;;;;;;;16.17;8.05;;;;;;;;;;5050932;28;20132;-75
2023/06/09 11:33:48;;;;;;;14.90;7.93;;;;;;;;;;5068844;28;20024;-75
2023/06/09 11:36:18;;;;;;;13.95;6.93;;;;;;;;;;5058493;28;20025;-75
2023/06/09 11:38:44;;;;;;;14.23;8.52;;;;;;;;;;5049089;28;20033;-75
2023/06/09 11:41:12;;;;;;;11.23;7.30;;;;;;;;;;5069235;28;20028;-75
2023/06/09 11:43:38;;;;;;;13.85;7.82;;;;;;;;;;5060349;28;20098;-76
2023/06/09 11:46:04;;;;;;;15.25;8.45;;;;;;;;;;5068823;28;20609;-75
2023/06/09 11:48:30;;;;;;;14.20;7.65;;;;;;;;;;5060468;28;20052;-75
2023/06/09 11:50:57;;;;;;;13.02;7.93;;;;;;;;;;5067033;28;20039;-75
2023/06/09 11:53:25;;;;;;;13.50;8.68;;;;;;;;;;5065980;28;20028;-75
2023/06/09 11:55:58;;;;;;;13.15;7.65;;;;;;;;;;5069974;28;20466;-74
2023/06/09 11:58:24;;;;;;;16.67;8.10;;;;;;;;;;5055812;28;20525;-75
2023/06/09 12:00:51;;;;;;;15.93;7.85;;;;;;;;;;5065003;28;20035;-75
2023/06/09 12:03:21;;;;;;;14.05;7.75;;;;;;;;;;5065721;28;20020;-77
2023/06/09 12:05:48;;;;;;;13.50;8.50;;;;;;;;;;5066913;28;20017;-76
2023/06/09 12:08:14;;;;;;;15.98;7.93;;;;;;;;;;5067449;28;20040;-76
2023/06/09 12:10:41;;;;;;;14.55;7.47;;;;;;;;;;5066667;28;20475;-75
2023/06/09 12:13:07;;;;;;;12.05;7.70;;;;;;;;;;5051221;28;20041;-75
2023/06/09 12:15:33;;;;;;;16.67;8.95;;;;;;;;;;5064688;28;20066;-76
2023/06/09 12:18:03;;;;;;;17.92;8.27;;;;;;;;;;5063352;28;20035;-75
2023/06/09 12:20:30;;;;;;;16.00;7.70;;;;;;;;;;5071090;28;20107;-77
2023/06/09 12:23:01;;;;;;;14.57;8.20;;;;;;;;;;5064135;28;20025;-77
2023/06/09 12:25:31;;;;;;;11.15;7.00;;;;;;;;;;5067699;28;20035;-80
2023/06/09 12:27:59;;;;;;;13.38;7.65;;;;;;;;;;5058904;28;20021;-78
2023/06/09 12:30:39;;;;;;;10.48;7.22;;;;;;;;;;5057833;28;20052;-78
2023/06/09 12:33:09;;;;;;;14.68;8.60;;;;;;;;;;5064607;28;20534;-78
2023/06/09 12:35:39;;;;;;;12.43;7.63;;;;;;;;;;5070651;28;20037;-77
2023/06/09 12:38:14;;;;;;;13.25;8.38;;;;;;;;;;5068206;28;20033;-77
2023/06/09 12:40:49;;;;;;;16.63;7.93;;;;;;;;;;5067147;28;20542;-76
2023/06/09 12:43:19;;;;;;;12.48;8.77;;;;;;;;;;5061869;28;20433;-76
2023/06/09 12:45:46;;;;;;;13.70;9.60;;;;;;;;;;5063056;28;20090;-77
2023/06/09 12:48:12;;;;;;;11.05;7.57;;;;;;;;;;5059932;28;20103;-78
2023/06/09 12:50:39;;;;;;;14.43;8.30;;;;;;;;;;5059232;28;20051;-77
2023/06/09 12:53:09;;;;;;;12.98;7.97;;;;;;;;;;5057973;28;20671;-77
2023/06/09 12:55:35;;;;;;;11.35;7.35;;;;;;;;;;5061017;28;20572;-78
2023/06/09 12:58:02;;;;;;;14.68;8.13;;;;;;;;;;5055352;28;20159;-77
2023/06/09 13:00:29;;;;;;;13.35;9.02;;;;;;;;;;5060410;28;20060;-77
2023/06/09 13:02:55;;;;;;;12.48;7.55;;;;;;;;;;5078058;28;20029;-78
2023/06/09 13:05:23;;;;;;;13.77;7.32;;;;;;;;;;5065748;28;20050;-78
2023/06/09 13:07:49;;;;;;;11.27;7.70;;;;;;;;;;5061873;28;20462;-80
2023/06/09 13:10:15;;;;;;;12.90;8.10;;;;;;;;;;5065406;28;20036;-78
2023/06/09 13:12:41;;;;;;;15.68;9.10;;;;;;;;;;5066329;28;20033;-78
2023/06/09 13:15:08;;;;;;;14.55;7.15;;;;;;;;;;5064235;28;20437;-77
2023/06/09 13:17:34;;;;;;;13.32;8.73;;;;;;;;;;5062298;28;20028;-78
2023/06/09 13:20:02;;;;;;;12.77;8.82;;;;;;;;;;5068638;28;20027;-77
2023/06/09 13:22:28;;;;;;;12.15;7.75;;;;;;;;;;5060339;28;20028;-77
2023/06/09 13:24:54;;;;;;;12.65;8.80;;;;;;;;;;5057961;28;20420;-78
2023/06/09 13:27:23;;;;;;;13.15;8.98;;;;;;;;;;5055282;28;20032;-77
2023/06/09 13:29:49;;;;;;;15.65;8.00;;;;;;;;;;5061805;28;20041;-76
2023/06/09 13:32:15;;;;;;;11.65;7.63;;;;;;;;;;5054530;28;20043;-77
2023/06/09 13:34:42;;;;;;;11.77;9.52;;;;;;;;;;5065781;28;20024;-77
2023/06/09 13:37:08;;;;;;;13.90;7.97;;;;;;;;;;5062223;28;20063;-79
2023/06/09 13:39:34;;;;;;;12.95;8.00;;;;;;;;;;5060913;28;20028;-77
2023/06/09 13:42:00;;;;;;;10.98;6.88;;;;;;;;;;5059711;28;20053;-77
2023/06/09 13:44:26;;;;;;;9.70;6.90;;;;;;;;;;5056648;28;20020;-77
2023/06/09 13:46:52;;;;;;;9.98;6.50;;;;;;;;;;5054581;28;20116;-76
2023/06/09 13:49:18;;;;;;;13.65;7.05;;;;;;;;;;5061676;28;20364;-77
2023/06/09 13:51:44;;;;;;;10.80;6.70;;;;;;;;;;5063030;28;20036;-77
2023/06/09 13:54:10;;;;;;;11.13;6.40;;;;;;;;;;5060607;28;20041;-77
2023/06/09 13:56:36;;;;;;;11.00;7.18;;;;;;;;;;5052485;28;21653;-77
2023/06/09 13:59:02;;;;;;;14.85;7.70;;;;;;;;;;5059756;28;20056;-77
2023/06/09 14:01:29;;;;;;;13.40;6.65;;;;;;;;;;5057219;28;20036;-77
2023/06/09 14:03:55;;;;;;;16.20;7.78;;;;;;;;;;5058038;28;20033;-77
2023/06/09 14:06:25;;;;;;;13.18;7.07;;;;;;;;;;5053034;28;20040;-78
2023/06/09 14:08:51;;;;;;;8.18;6.25;;;;;;;;;;5054236;28;20029;-78
2023/06/09 14:11:18;;;;;;;11.60;7.32;;;;;;;;;;5056553;28;20066;-77
2023/06/09 14:13:44;;;;;;;9.95;6.90;;;;;;;;;;5059922;28;20018;-78
2023/06/09 14:16:10;;;;;;;11.50;6.32;;;;;;;;;;5057246;28;20028;-77
2023/06/09 14:18:36;;;;;;;10.68;6.75;;;;;;;;;;5050430;28;20454;-77
2023/06/09 14:21:05;;;;;;;12.88;7.13;;;;;;;;;;5058612;28;20037;-77
2023/06/09 14:23:31;;;;;;;9.90;6.45;;;;;;;;;;5059143;28;20517;-77
2023/06/09 14:25:58;;;;;;;10.48;6.65;;;;;;;;;;5058072;28;20043;-78
2023/06/09 14:28:24;;;;;;;11.52;6.43;;;;;;;;;;5056633;28;20024;-77
2023/06/09 14:30:50;;;;;;;11.70;6.68;;;;;;;;;;5052858;28;20070;-77
2023/06/09 14:33:16;;;;;;;9.65;5.93;;;;;;;;;;5059596;28;20094;-78